aviador You're here:

KSTF Decoded Metar

in
Report Time2017-07-23 08:35:00
UTC Time2017-07-23 08:45:58
Flight Rules vfr VFR
WindCalm
Visibility9999 m
Phenomena:N/A
Clouds:N/A
CeilingNone
Temp22°C
Dew Point22°C (100% RH)
QNH1014 hPa
Raw Report
KSTF 230835Z AUTO 00000KT 7SM CLR 22/22 A2994 RMK AO2=

Extra information for KSTF:More info

Social comments